Latest Weather Observations for Sydney Airport

IDN60901

Issued at 11:11 am EST Tuesday 27 September 2022 (issued every 10 minutes, with the page automatically refreshed every 10 minutes)

About weather observations | Map of Sydney area stations | Latest observations for Sydney area | Other Formats
Station Details ID: 066037 Name: SYDNEY AIRPORT AMO Lat: -33.95 Lon: 151.17 Height: 6.0 m
Data from the previous 72 hours. | See also: Recent months at Sydney Airport
Date/Time
EST
Temp
°C
App
Temp
°C
Dew
Point
°C
Rel
Hum
%
Delta-T
°C
Wind Press
QNH
hPa
Press
MSL
hPa
Rain since
9am
mm
Dir  Spd
km/h
Gust
km/h
Spd
kts
Gust
kts
27/11:00am 18.9 18.0 12.6 67 3.5 W 9 13 5 7 1014.1 1014.1 0.2
27/10:30am 19.1 17.8 11.4 61 4.2 WNW 9 11 5 6 1014.3 1014.3 0.2
27/10:00am 18.5 18.5 15.2 81 1.9 NNW 9 15 5 8 1014.3 1014.3 0.0
27/09:30am 16.9 16.2 14.4 85 1.4 NW 11 17 6 9 1014.7 1014.7 0.0
27/09:00am 15.8 15.2 13.6 87 1.2 WNW 9 17 5 9 1014.7 1014.7 0.0
27/08:30am 16.4 15.7 14.4 88 1.1 WNW 11 15 6 8 1014.9 1014.9 0.0
27/08:00am 15.9 15.4 13.7 87 1.2 NW 9 13 5 7 1014.9 1014.9 0.0
27/07:30am 15.1 13.7 13.3 89 1.0 WNW 13 17 7 9 1014.9 1014.9 0.0
27/07:00am 15.0 13.9 13.0 88 1.1 NW 11 15 6 8 1014.7 1014.7 0.0
27/06:30am 15.8 14.9 13.6 87 1.2 NW 11 13 6 7 1014.5 1014.5 0.0
27/06:00am 14.8 14.1 13.2 90 0.9 WNW 9 11 5 6 1014.1 1014.1 0.0
27/05:30am 14.3 14.0 12.7 90 0.9 NW 6 7 3 4 1013.7 1013.7 0.0
27/05:00am 13.9 13.5 12.3 90 0.9 NW 6 7 3 4 1013.4 1013.4 0.0
27/04:30am 14.1 13.2 12.7 91 0.8 WNW 9 11 5 6 1013.5 1013.5 0.0
27/04:00am 14.0 12.7 12.4 90 0.9 WNW 11 13 6 7 1013.5 1013.5 0.0
27/03:30am 14.2 13.3 12.6 90 0.9 WNW 9 11 5 6 1013.3 1013.3 0.0
27/03:00am 14.6 14.2 13.0 90 0.9 NW 7 7 4 4 1013.3 1013.3 0.0
27/02:30am 14.5 14.6 12.7 89 1.0 WNW 4 7 2 4 1013.6 1013.6 0.0
27/02:00am 14.7 14.3 12.9 89 1.0 NW 7 9 4 5 1013.8 1013.8 0.0
27/01:30am 15.2 14.8 12.9 86 1.3 NE 7 7 4 4 1014.0 1014.0 0.0
27/01:00am 15.2 14.3 12.7 85 1.4 NNW 9 9 5 5 1014.4 1014.4 0.0
27/12:30am 16.0 15.3 13.3 84 1.5 NW 9 11 5 6 1014.7 1014.7 0.0
27/12:00am 16.1 15.4 13.2 83 1.6 NW 9 13 5 7 1015.0 1015.0 0.0
 
Date/Time
EST
Temp
°C
App
Temp
°C
Dew
Point
°C
Rel
Hum
%
Delta-T
°C
Wind Press
QNH
hPa
Press
MSL
hPa
Rain since
9am
mm
Dir  Spd
km/h
Gust
km/h
Spd
kts
Gust
kts
26/11:30pm 16.9 15.9 13.4 80 2.0 N 11 13 6 7 1015.0 1015.0 0.0
26/11:00pm 17.1 15.7 13.4 79 2.1 N 13 19 7 10 1015.2 1015.2 0.0
26/10:30pm 17.5 15.8 13.6 78 2.2 NNE 15 19 8 10 1015.3 1015.3 0.0
26/10:00pm 17.6 15.4 13.3 76 2.4 N 17 20 9 11 1015.5 1015.5 0.0
26/09:30pm 17.7 15.5 13.2 75 2.5 NNE 17 22 9 12 1015.7 1015.7 0.0
26/09:00pm 17.7 16.2 13.2 75 2.5 NNE 13 17 7 9 1015.9 1015.9 0.0
26/08:30pm 17.8 15.9 12.9 73 2.7 NNE 15 17 8 9 1016.0 1016.0 0.0
26/08:00pm 17.7 15.7 12.8 73 2.7 NNE 15 17 8 9 1016.1 1016.1 0.0
26/07:30pm 17.8 16.1 12.5 71 2.9 NNE 13 17 7 9 1015.9 1015.9 0.0
26/07:00pm 17.7 15.6 12.4 71 2.9 NNE 15 19 8 10 1015.3 1015.3 0.0
26/06:30pm 18.0 15.5 12.2 69 3.2 NNE 17 22 9 12 1015.4 1015.4 0.0
26/06:00pm 17.7 14.6 11.7 68 3.3 NNE 19 26 10 14 1015.1 1015.1 0.0
26/05:30pm 17.8 14.2 11.8 68 3.3 NE 22 28 12 15 1015.1 1015.1 0.0
26/05:00pm 18.5 14.9 12.0 66 3.6 NE 22 28 12 15 1014.9 1014.9 0.0
26/04:30pm 18.4 14.3 11.5 64 3.8 NE 24 28 13 15 1014.8 1014.8 0.0
26/04:00pm 18.4 14.2 11.0 62 4.0 NE 24 28 13 15 1014.7 1014.7 0.0
26/03:30pm 18.6 15.2 11.2 62 4.0 ENE 20 26 11 14 1014.7 1014.7 0.0
26/03:00pm 18.8 16.2 12.1 65 3.7 E 17 24 9 13 1015.1 1015.1 0.0
26/02:30pm 18.3 16.3 11.6 65 3.7 ENE 13 19 7 10 1015.4 1015.4 0.0
26/02:00pm 18.7 16.5 12.0 65 3.7 ENE 15 20 8 11 1015.7 1015.7 0.0
26/01:30pm 18.1 16.0 11.2 64 3.7 SSE 13 17 7 9 1015.8 1015.8 0.0
26/01:00pm 18.3 16.2 11.1 63 3.9 SSE 13 17 7 9 1016.0 1016.0 0.0
26/12:30pm 18.2 16.5 11.3 64 3.8 S 11 13 6 7 1016.5 1016.5 0.0
26/12:00pm 18.0 16.1 10.4 61 4.1 SW 11 17 6 9 1017.1 1017.1 0.0
26/11:30am 17.5 15.5 10.1 62 3.9 SW 11 13 6 7 1017.2 1017.2 0.0
26/11:00am 17.0 15.2 9.4 61 4.0 SW 9 13 5 7 1017.5 1017.5 0.0
26/10:30am 16.7 14.9 9.6 63 3.7 WSW 9 13 5 7 1017.9 1017.9 0.0
26/10:00am 16.4 14.9 9.1 62 3.8 WNW 7 11 4 6 1018.0 1018.0 0.0
26/09:30am 16.1 14.3 9.5 65 3.4 WNW 9 11 5 6 1018.3 1018.3 0.0
26/09:00am 16.6 14.9 10.0 65 3.5 WNW 9 13 5 7 1018.3 1018.3 0.0
26/08:30am 14.5 12.9 10.1 75 2.3 WNW 9 13 5 7 1018.0 1018.0 0.0
26/08:00am 14.1 12.7 10.9 81 1.7 WNW 9 11 5 6 1017.7 1017.7 0.0
26/07:30am 13.7 12.2 10.5 81 1.7 NW 9 11 5 6 1017.7 1017.7 0.0
26/07:00am 13.4 12.0 10.8 84 1.4 WNW 9 15 5 8 1017.8 1017.8 0.0
26/06:30am 13.4 11.6 10.9 85 1.3 NW 11 17 6 9 1017.5 1017.5 0.0
26/06:00am 11.8 9.4 10.0 89 0.9 WNW 13 15 7 8 1017.3 1017.3 0.0
26/05:30am 12.1 10.4 9.8 86 1.2 NNW 9 11 5 6 1017.1 1017.1 0.0
26/05:00am 12.4 10.9 10.5 88 1.0 NW 9 11 5 6 1017.0 1017.0 0.0
26/04:30am 12.3 10.8 10.4 88 1.0 NNW 9 11 5 6 1016.4 1016.4 0.0
26/04:00am 12.4 12.6 10.6 89 0.9 CALM 0 2 0 1 1016.6 1016.6 0.0
26/03:30am 12.3 10.8 10.7 90 0.8 WSW 9 9 5 5 1016.5 1016.5 0.0
26/03:00am 12.6 11.5 10.8 89 0.9 NW 7 7 4 4 1016.5 1016.5 0.0
26/02:30am 12.7 12.2 10.9 89 0.9 NNW 4 6 2 3 1016.9 1016.9 0.0
26/02:00am 13.0 12.2 11.1 88 1.0 NW 6 9 3 5 1017.2 1017.2 0.0
26/01:30am 12.9 12.4 10.8 87 1.1 WSW 4 7 2 4 1017.4 1017.4 0.0
26/01:00am 13.4 11.8 11.5 88 1.0 SW 11 13 6 7 1017.7 1017.7 0.0
26/12:30am 13.5 11.9 11.6 88 1.0 WSW 11 13 6 7 1017.8 1017.8 0.0
26/12:00am 13.9 12.8 11.9 88 1.1 SW 9 9 5 5 1017.3 1017.3 0.0
 
Date/Time
EST
Temp
°C
App
Temp
°C
Dew
Point
°C
Rel
Hum
%
Delta-T
°C
Wind Press
QNH
hPa
Press
MSL
hPa
Rain since
9am
mm
Dir  Spd
km/h
Gust
km/h
Spd
kts
Gust
kts
25/11:30pm 14.3 13.5 11.8 85 1.3 SSW 7 9 4 5 1017.5 1017.5 0.0
25/11:00pm 14.6 13.5 12.1 85 1.4 SSW 9 11 5 6 1017.8 1017.8 0.0
25/10:30pm 14.8 13.2 11.4 80 1.8 SW 11 13 6 7 1018.0 1018.0 0.0
25/10:00pm 15.9 16.3 11.1 73 2.6 CALM 0 0 0 0 1017.8 1017.8 0.0
25/09:30pm 16.2 15.5 11.4 73 2.6 ESE 6 7 3 4 1017.5 1017.5 0.0
25/09:00pm 15.6 13.8 11.0 74 2.4 ESE 11 11 6 6 1017.3 1017.3 0.0
25/08:30pm 15.9 14.2 11.1 73 2.6 SE 11 11 6 6 1017.1 1017.1 0.0
25/08:00pm 16.6 14.5 11.1 70 3.0 SE 13 15 7 8 1016.6 1016.6 0.0
25/07:30pm 16.5 14.6 10.4 67 3.2 SE 11 15 6 8 1016.1 1016.1 0.0
25/07:00pm 16.2 14.1 9.8 66 3.3 ESE 11 13 6 7 1015.6 1015.6 0.0
25/06:30pm 16.7 13.9 10.1 65 3.5 E 15 17 8 9 1015.1 1015.1 0.0
25/06:00pm 17.0 13.7 9.4 61 4.0 E 17 19 9 10 1014.7 1014.7 0.0
25/05:30pm 17.5 13.7 8.9 57 4.5 E 19 24 10 13 1014.6 1014.6 0.0
25/05:00pm 18.1 14.3 9.2 56 4.6 E 19 24 10 13 1014.3 1014.3 0.0
25/04:30pm 19.0 15.2 9.2 53 5.1 ENE 19 24 10 13 1014.2 1014.2 0.0
25/04:00pm 19.2 15.4 9.1 52 5.3 E 19 24 10 13 1013.8 1013.8 0.0
25/03:30pm 19.2 15.3 8.5 50 5.6 E 19 26 10 14 1013.8 1013.8 0.0
25/03:00pm 19.7 15.2 8.7 49 5.7 E 22 26 12 14 1013.6 1013.6 0.0
25/02:30pm 20.0 15.5 8.7 48 5.9 E 22 28 12 15 1013.8 1013.8 0.0
25/02:00pm 20.5 16.2 7.8 44 6.6 ESE 20 26 11 14 1014.0 1014.0 0.0
25/01:30pm 20.3 16.5 8.9 48 6.0 ESE 19 24 10 13 1014.1 1014.1 0.0
25/01:00pm 20.7 16.9 5.9 38 7.4 SE 15 22 8 12 1014.3 1014.3 0.0
25/12:30pm 20.2 15.9 5.1 37 7.4 SE 17 20 9 11 1014.6 1014.6 0.0
25/12:00pm 19.5 16.9 5.9 41 6.7 ENE 9 13 5 7 1015.1 1015.1 0.0
25/11:30am 19.2 17.4 7.9 48 5.8 SW 7 9 4 5 1015.5 1015.5 0.0
25/11:00am 18.3 15.9 6.8 47 5.7 SW 9 13 5 7 1015.8 1015.8 0.0
25/10:30am 18.1 14.9 6.9 48 5.6 W 13 17 7 9 1016.2 1016.2 0.0
25/10:00am 18.1 15.0 7.2 49 5.5 WNW 13 17 7 9 1016.4 1016.4 0.0
25/09:30am 16.9 12.9 6.7 51 5.0 WNW 17 22 9 12 1016.5 1016.5 0.0
25/09:00am 16.3 12.0 7.8 57 4.3 W 20 28 11 15 1016.5 1016.5 1.0
25/08:30am 15.5 12.6 9.6 68 3.1 WNW 15 19 8 10 1016.5 1016.5 1.0
25/08:00am 13.8 11.8 10.2 79 1.9 NW 11 15 6 8 1016.3 1016.3 1.0
25/07:30am 13.6 11.9 11.1 85 1.3 NW 11 15 6 8 1016.0 1016.0 1.0
25/07:00am 12.4 10.7 11.3 93 0.6 NW 11 13 6 7 1015.9 1015.9 1.0
25/06:30am 11.5 10.0 10.6 94 0.5 NW 9 11 5 6 1015.6 1015.6 1.0
25/06:18am 11.7 10.3 10.9 95 0.4 NNW 9 13 5 7 1015.4 1015.4 1.0
25/06:00am 11.2 8.9 10.4 95 0.4 WNW 13 15 7 8 1015.3 1015.3 1.0
25/05:30am 11.3 9.0 10.5 95 0.4 NW 13 15 7 8 1015.1 1015.1 1.0
25/05:00am 11.3 9.8 10.4 94 0.5 WNW 9 11 5 6 1014.7 1014.7 1.0
25/04:30am 11.9 10.1 11.0 94 0.5 WSW 11 11 6 6 1014.3 1014.3 1.0
25/04:00am 12.0 9.8 10.9 93 0.6 W 13 15 7 8 1014.3 1014.3 1.0
25/03:30am 12.5 10.0 11.2 92 0.7 W 15 17 8 9 1014.2 1014.2 1.0
25/03:00am 12.4 10.3 11.1 92 0.7 WSW 13 17 7 9 1014.1 1014.1 1.0
25/02:30am 12.8 10.4 11.4 91 0.7 WSW 15 17 8 9 1014.1 1014.1 1.0
25/02:00am 13.2 11.2 11.6 90 0.9 WSW 13 17 7 9 1014.1 1014.1 1.0
25/01:30am 13.7 11.5 12.1 90 0.9 WNW 15 17 8 9 1014.5 1014.5 1.0
25/01:00am 14.2 13.2 12.4 89 1.0 NW 9 11 5 6 1014.5 1014.5 1.0
25/12:30am 13.8 12.3 12.0 89 1.0 NW 11 13 6 7 1014.6 1014.6 1.0
25/12:00am 14.1 12.3 12.0 87 1.1 W 13 15 7 8 1014.5 1014.5 1.0
 
Date/Time
EST
Temp
°C
App
Temp
°C
Dew
Point
°C
Rel
Hum
%
Delta-T
°C
Wind Press
QNH
hPa
Press
MSL
hPa
Rain since
9am
mm
Dir  Spd
km/h
Gust
km/h
Spd
kts
Gust
kts
24/11:30pm 14.0 12.2 12.0 88 1.1 W 13 17 7 9 1014.6 1014.6 1.0
24/11:00pm 14.1 11.5 12.1 88 1.1 WSW 17 19 9 10 1014.6 1014.6 1.0
24/10:30pm 14.0 10.7 11.7 86 1.2 WSW 20 30 11 16 1014.4 1014.4 1.0
24/10:00pm 14.1 11.3 11.4 84 1.4 W 17 26 9 14 1014.0 1014.0 1.0
24/09:30pm 14.3 11.3 12.0 86 1.2 WSW 19 37 10 20 1014.2 1014.2 1.0
24/09:00pm 14.4 11.9 12.4 88 1.1 WSW 17 20 9 11 1014.1 1014.1 1.0
24/08:30pm 14.5 12.5 12.7 89 1.0 WSW 15 17 8 9 1013.9 1013.9 1.0
24/08:00pm 14.6 12.9 12.6 88 1.1 WSW 13 17 7 9 1013.6 1013.6 1.0
24/07:30pm 15.0 13.4 12.9 87 1.2 WSW 13 24 7 13 1013.5 1013.5 1.0
24/07:00pm 15.2 13.3 13.1 87 1.2 SW 15 17 8 9 1013.0 1013.0 1.0
24/06:30pm 15.3 14.6 13.2 87 1.2 SW 9 13 5 7 1012.5 1012.5 1.0
24/06:00pm 15.5 14.8 13.2 86 1.3 SSW 9 11 5 6 1011.9 1011.9 1.0
24/05:30pm 15.9 14.5 13.4 85 1.4 SSE 13 15 7 8 1011.4 1011.4 1.0
24/05:00pm 15.8 13.5 12.9 83 1.6 S 17 26 9 14 1011.3 1011.3 0.6
24/04:30pm 16.4 13.5 12.9 80 1.9 SSE 20 26 11 14 1010.4 1010.4 0.4
24/04:00pm 16.1 13.8 13.0 82 1.7 SSE 17 22 9 12 1010.3 1010.3 0.2
24/03:30pm 16.7 12.7 11.8 73 2.7 SSE 24 35 13 19 1010.1 1010.1 0.2
24/03:00pm 17.4 14.3 12.1 71 2.9 SE 20 30 11 16 1009.7 1009.7 0.2
24/02:30pm 17.0 12.9 12.7 76 2.4 SSE 26 32 14 17 1009.9 1009.9 0.2
24/02:00pm 16.7 12.3 13.0 79 2.1 SSE 28 35 15 19 1009.9 1009.9 0.2
24/01:30pm 16.3 10.9 12.3 77 2.2 SSE 32 39 17 21 1009.4 1009.4 0.2
24/01:00pm 16.5 10.7 12.7 78 2.1 S 35 44 19 24 1009.8 1009.8 0.2
24/12:30pm 16.4 10.5 12.4 77 2.2 S 35 46 19 25 1010.0 1010.0 0.2
24/12:00pm 16.8 11.1 12.9 78 2.2 SSE 35 44 19 24 1010.0 1010.0 0.2
24/11:30am 17.3 11.5 12.6 74 2.6 S 35 44 19 24 1010.4 1010.4 0.2

Latest Capital City Observations: Canberra | Sydney | Melbourne | Brisbane | Adelaide | Perth | Hobart | Darwin

Other formats

Comma delimited format used in spreadsheet applications
http://www.bom.gov.au/fwo/IDN60901/IDN60901.94767.axf

JavaScript Object Notation format (JSON) in row-major order
http://www.bom.gov.au/fwo/IDN60901/IDN60901.94767.json

Data quality

Most of these data are generated automatically and are frequently updated. Quality checks on data are not normally performed. It is possible for incorrect values to appear. Refer to information at About Latest Weather Observations and please check the disclaimer before using these data.